Time;durP1;ratioP1;P1;durP2;ratioP2;P2;SDS_P1;SDS_P2;PMS_P1;PMS_P2;Temp;Humidity;BMP_temperature;BMP_pressure;BME280_temperature;BME280_humidity;BME280_pressure;Samples;Min_cycle;Max_cycle;Signal;HPM_P1;HPM_P2
2021/08/26 00:06:34;;;;;;;5.67;2.27;;;;;;;18.33;69.74;101808.28;10527228;28;20051;-80
2021/08/26 00:11:38;;;;;;;1.55;1.45;;;;;;;18.37;69.85;101803.16;10507726;28;20108;-80
2021/08/26 00:16:41;;;;;;;2.38;1.73;;;;;;;18.38;69.53;101804.00;10502673;28;20032;-81
2021/08/26 00:21:41;;;;;;;3.33;2.13;;;;;;;18.07;68.80;101754.56;10536117;28;20028;-81
2021/08/26 00:26:42;;;;;;;1.77;1.67;;;;;;;18.12;68.18;101801.34;10538108;28;20059;-81
2021/08/26 00:31:43;;;;;;;4.88;1.95;;;;;;;18.01;68.17;101788.34;10518956;28;20129;-81
2021/08/26 00:36:44;;;;;;;6.57;3.33;;;;;;;17.97;68.95;101795.34;10499570;28;20036;-81
2021/08/26 00:42:07;;;;;;;7.70;3.05;;;;;;;18.01;68.26;101782.03;10497800;28;20109;-81
2021/08/26 00:47:08;;;;;;;10.48;3.28;;;;;;;17.96;68.58;101766.25;10532590;28;20063;-81
2021/08/26 00:52:10;;;;;;;17.85;4.32;;;;;;;17.91;68.50;101768.00;10496915;28;20144;-80
2021/08/26 00:57:11;;;;;;;2.88;2.67;;;;;;;18.01;68.50;101732.69;10497827;28;20039;-80
2021/08/26 01:02:20;;;;;;;9.35;4.80;;;;;;;17.83;68.99;101697.88;10535614;28;20036;-81
2021/08/26 01:07:27;;;;;;;11.32;3.60;;;;;;;18.32;68.31;101759.16;10536234;28;20428;-80
2021/08/26 01:12:28;;;;;;;14.20;4.38;;;;;;;18.19;68.45;101757.41;10535901;28;20031;-80
2021/08/26 01:17:30;;;;;;;5.07;3.35;;;;;;;18.32;67.16;101743.53;10515479;28;20437;-81
2021/08/26 01:22:32;;;;;;;10.57;3.63;;;;;;;18.41;67.37;101757.78;10495300;28;20042;-80
2021/08/26 01:27:51;;;;;;;10.45;4.53;;;;;;;17.85;67.61;101680.16;10498472;28;20142;-81
2021/08/26 01:32:53;;;;;;;9.13;2.88;;;;;;;18.11;67.34;101713.81;10523540;28;20059;-81
2021/08/26 01:37:54;;;;;;;7.90;2.50;;;;;;;18.15;66.54;101728.75;10492702;28;20179;-81
2021/08/26 01:42:54;;;;;;;9.27;2.53;;;;;;;18.24;66.09;101738.34;10529011;28;20199;-81
2021/08/26 01:47:55;;;;;;;12.15;4.38;;;;;;;17.95;66.31;101696.06;10551888;28;20384;-81
2021/08/26 01:52:55;;;;;;;4.28;2.25;;;;;;;17.99;65.76;101715.63;10534127;28;20087;-81
2021/08/26 01:58:00;;;;;;;10.85;3.88;;;;;;;18.10;65.51;101731.34;10548248;28;20044;-80
2021/08/26 02:03:00;;;;;;;15.63;4.05;;;;;;;18.05;66.00;101734.75;10546041;28;20074;-81
2021/08/26 02:08:00;;;;;;;10.95;4.53;;;;;;;17.71;65.69;101662.16;10528239;28;20071;-81
2021/08/26 02:13:01;;;;;;;11.48;4.85;;;;;;;18.18;65.64;101731.03;10527827;28;20039;-81
2021/08/26 02:18:01;;;;;;;14.05;4.65;;;;;;;18.23;65.42;101716.66;10545860;28;20442;-81
2021/08/26 02:23:02;;;;;;;13.70;4.25;;;;;;;17.83;65.62;101670.50;10511896;28;20074;-81
2021/08/26 02:28:03;;;;;;;10.25;5.72;;;;;;;18.07;65.67;101727.16;10545922;28;20046;-81
2021/08/26 02:33:03;;;;;;;15.77;4.47;;;;;;;17.99;65.98;101719.22;10544491;28;20056;-81
2021/08/26 02:38:04;;;;;;;19.88;5.68;;;;;;;18.06;65.27;101708.19;10510116;28;20047;-80
2021/08/26 02:43:04;;;;;;;13.65;5.70;;;;;;;18.18;65.45;101722.81;10544124;28;20032;-81
2021/08/26 02:48:05;;;;;;;9.80;4.78;;;;;;;18.17;65.53;101731.28;10493832;28;20089;-81
2021/08/26 02:53:05;;;;;;;11.13;5.35;;;;;;;18.11;65.41;101722.88;10544979;28;20480;-81
2021/08/26 02:58:06;;;;;;;9.80;4.00;;;;;;;18.03;66.13;101708.66;10527641;28;20039;-81
2021/08/26 03:03:06;;;;;;;15.52;5.30;;;;;;;17.88;64.50;101703.53;10546093;28;20503;-81
2021/08/26 03:08:07;;;;;;;15.30;4.72;;;;;;;17.83;64.69;101720.63;10525751;28;20491;-82
2021/08/26 03:13:07;;;;;;;4.38;2.50;;;;;;;17.33;63.34;101682.31;10508786;28;20160;-81
2021/08/26 03:18:08;;;;;;;8.10;2.78;;;;;;;17.76;62.70;101706.13;10508505;28;20484;-81
2021/08/26 03:23:08;;;;;;;15.80;4.43;;;;;;;17.84;62.95;101716.84;10525034;28;20492;-80
2021/08/26 03:28:09;;;;;;;5.45;2.88;;;;;;;17.62;62.06;101694.47;10524826;28;20491;-80
2021/08/26 03:33:09;;;;;;;8.55;3.10;;;;;;;17.89;62.03;101710.69;10523714;28;20522;-80
2021/08/26 03:38:10;;;;;;;8.05;4.32;;;;;;;17.81;61.43;101698.13;10523971;28;20487;-80
2021/08/26 03:43:10;;;;;;;10.55;4.50;;;;;;;17.86;62.21;101708.38;10541766;28;20126;-79
2021/08/26 03:48:10;;;;;;;11.02;3.75;;;;;;;17.94;62.29;101702.63;10507565;28;20047;-79
2021/08/26 03:53:11;;;;;;;9.60;4.30;;;;;;;17.89;62.06;101703.28;10541128;28;20066;-80
2021/08/26 03:58:11;;;;;;;7.82;4.50;;;;;;;17.62;61.72;101656.13;10541304;28;20040;-80
2021/08/26 04:03:12;;;;;;;7.80;3.08;;;;;;;17.88;62.27;101690.66;10505686;28;20113;-79
2021/08/26 04:08:12;;;;;;;7.88;3.85;;;;;;;17.79;61.98;101697.50;10542059;28;20043;-79
2021/08/26 04:13:13;;;;;;;11.20;4.05;;;;;;;17.76;62.33;101672.44;10543028;28;20119;-79
2021/08/26 04:18:13;;;;;;;10.30;3.60;;;;;;;17.87;62.98;101686.25;10541000;28;20039;-80
2021/08/26 04:23:13;;;;;;;7.25;3.25;;;;;;;17.92;64.32;101698.44;10522646;28;20396;-80
2021/08/26 04:28:14;;;;;;;13.63;3.20;;;;;;;17.98;63.13;101689.31;10489048;28;20118;-80
2021/08/26 04:33:14;;;;;;;5.13;3.10;;;;;;;17.96;62.87;101674.97;10540105;28;20110;-81
2021/08/26 04:38:15;;;;;;;5.07;2.85;;;;;;;17.93;63.51;101691.88;10446852;28;20052;-78
2021/08/26 04:43:15;;;;;;;15.75;3.53;;;;;;;17.92;62.19;101676.50;10540089;28;20456;-80
2021/08/26 04:48:15;;;;;;;13.68;3.25;;;;;;;18.06;62.47;101698.06;10522162;28;20032;-81
2021/08/26 04:53:16;;;;;;;11.35;2.65;;;;;;;17.84;62.90;101655.75;10540020;28;20119;-81
2021/08/26 04:58:16;;;;;;;7.00;3.05;;;;;;;17.93;64.12;101697.34;10539041;28;20097;-79
2021/08/26 05:03:17;;;;;;;5.82;3.15;;;;;;;18.06;62.40;101687.13;10540592;28;20038;-79
2021/08/26 05:08:17;;;;;;;14.25;3.70;;;;;;;18.15;62.48;101678.56;10548843;28;20105;-80
2021/08/26 05:13:18;;;;;;;13.27;4.32;;;;;;;18.21;62.08;101692.19;10530603;28;20137;-80
2021/08/26 05:18:18;;;;;;;4.00;2.50;;;;;;;18.19;61.78;101697.09;10528057;28;20066;-80
2021/08/26 05:23:19;;;;;;;7.28;2.88;;;;;;;18.20;63.20;101700.66;10542738;28;20481;-80
2021/08/26 05:28:19;;;;;;;4.50;2.28;;;;;;;18.21;61.82;101694.09;10523776;28;20119;-81
2021/08/26 05:33:20;;;;;;;7.35;2.70;;;;;;;17.95;61.80;101663.19;10506739;28;20130;-80
2021/08/26 05:38:24;;;;;;;10.27;2.95;;;;;;;18.31;61.77;101686.16;10543144;28;20032;-80
2021/08/26 05:43:24;;;;;;;4.03;1.33;;;;;;;18.15;62.73;101684.03;10526046;28;20043;-80
2021/08/26 05:48:25;;;;;;;2.28;1.63;;;;;;;18.21;59.58;101686.72;10525162;28;20095;-80
2021/08/26 05:53:25;;;;;;;6.70;3.25;;;;;;;18.29;59.38;101686.41;10524454;28;20043;-81
2021/08/26 05:58:26;;;;;;;7.80;3.03;;;;;;;18.29;59.98;101686.41;10489595;28;20379;-81
2021/08/26 06:03:26;;;;;;;14.98;3.10;;;;;;;18.54;60.88;101693.72;10523842;28;20066;-81
2021/08/26 06:08:29;;;;;;;12.45;3.70;;;;;;;18.45;61.58;101690.44;10541977;28;20474;-81
2021/08/26 06:13:30;;;;;;;8.15;2.55;;;;;;;18.47;62.23;101688.28;10508959;28;20028;-81
2021/08/26 06:18:30;;;;;;;18.38;4.50;;;;;;;18.29;62.34;101682.84;10543556;28;20106;-82
2021/08/26 06:23:31;;;;;;;9.38;3.03;;;;;;;18.06;62.71;101667.94;10493415;28;20122;-81
2021/08/26 06:28:31;;;;;;;11.80;2.25;;;;;;;18.27;63.19;101695.94;10515110;28;20143;-80
2021/08/26 06:33:32;;;;;;;10.32;3.05;;;;;;;18.15;62.38;101665.69;10554206;28;20064;-81
2021/08/26 06:38:33;;;;;;;5.13;2.50;;;;;;;18.08;61.77;101640.28;10507023;28;20157;-81
2021/08/26 06:43:33;;;;;;;5.30;2.38;;;;;;;18.89;61.42;101682.03;10519805;28;20055;-81
2021/08/26 06:48:34;;;;;;;8.40;2.08;;;;;;;18.97;61.37;101688.03;10536913;28;20470;-81
2021/08/26 06:53:34;;;;;;;3.53;1.42;;;;;;;18.64;62.47;101674.78;10520523;28;20111;-81
2021/08/26 06:58:35;;;;;;;2.72;2.35;;;;;;;18.58;62.07;101719.59;10524646;28;20040;-81
2021/08/26 07:03:35;;;;;;;7.90;2.70;;;;;;;17.81;64.73;101664.41;10523424;28;20411;-81
2021/08/26 07:08:36;;;;;;;4.68;2.63;;;;;;;17.91;63.38;101650.19;10504795;28;20040;-81
2021/08/26 07:13:37;;;;;;;4.43;2.15;;;;;;;18.87;62.26;101708.91;10540430;28;20123;-81
2021/08/26 07:18:37;;;;;;;10.07;1.85;;;;;;;19.34;60.79;101696.13;10540068;28;20048;-81
2021/08/26 07:23:38;;;;;;;6.35;3.47;;;;;;;19.61;59.78;101701.16;10521783;28;20040;-81
2021/08/26 07:28:39;;;;;;;3.88;2.60;;;;;;;19.52;61.04;101718.00;10488579;28;20036;-82
2021/08/26 07:33:40;;;;;;;9.95;2.67;;;;;;;19.67;62.06;101720.31;10521126;28;20440;-81
2021/08/26 07:38:40;;;;;;;2.15;2.00;;;;;;;19.08;62.21;101727.59;10517794;28;20066;-82
2021/08/26 07:43:41;;;;;;;9.10;1.73;;;;;;;19.06;63.28;101729.72;10499086;28;20134;-81
2021/08/26 07:48:43;;;;;;;3.63;1.35;;;;;;;20.84;61.40;101715.72;10500270;28;20123;-82
2021/08/26 07:53:43;;;;;;;2.03;1.88;;;;;;;21.72;58.03;101683.88;10501974;28;20043;-82
2021/08/26 07:58:47;;;;;;;6.30;1.95;;;;;;;22.97;56.27;101703.44;10499899;28;20071;-81
2021/08/26 08:03:54;;;;;;;8.60;2.13;;;;;;;22.36;56.60;101704.63;10500299;28;20079;-82
2021/08/26 08:08:55;;;;;;;5.75;2.17;;;;;;;20.86;59.45;101710.78;10535623;28;20069;-82
2021/08/26 08:13:55;;;;;;;7.20;2.05;;;;;;;20.30;60.36;101704.97;10533712;28;20540;-81
2021/08/26 08:18:56;;;;;;;2.20;1.98;;;;;;;21.51;59.64;101699.28;10514898;28;20448;-81
2021/08/26 08:24:17;;;;;;;5.75;2.53;;;;;;;22.48;58.29;101622.53;10514961;28;20508;-82
2021/08/26 08:29:17;;;;;;;8.75;1.30;;;;;;;23.14;57.25;101683.97;10532007;28;20478;-82
2021/08/26 08:34:24;;;;;;;8.07;2.67;;;;;;;22.32;58.44;101682.25;10532815;28;20147;-81
2021/08/26 08:39:25;;;;;;;6.30;1.88;;;;;;;20.94;60.95;101706.81;10514565;28;20056;-82
2021/08/26 08:44:25;;;;;;;7.43;2.20;;;;;;;20.76;62.26;101705.06;10531360;28;20127;-81
2021/08/26 08:49:26;;;;;;;13.02;1.75;;;;;;;20.82;60.00;101693.09;10513678;28;20032;-82
2021/08/26 08:54:26;;;;;;;5.15;1.75;;;;;;;21.55;58.64;101694.94;10515225;28;20036;-82
2021/08/26 08:59:30;;;;;;;7.97;2.20;;;;;;;22.33;57.40;101694.94;10515009;28;20125;-81
2021/08/26 09:04:31;;;;;;;5.50;2.88;;;;;;;22.72;56.89;101684.66;10516117;28;20029;-82
2021/08/26 09:09:32;;;;;;;6.57;2.38;;;;;;;22.08;55.28;101611.81;10497385;28;20048;-82
2021/08/26 09:14:32;;;;;;;2.28;2.08;;;;;;;22.21;54.99;101648.19;10498501;28;20372;-82
2021/08/26 09:19:42;;;;;;;2.75;1.60;;;;;;;22.28;56.71;101601.91;10514708;28;20511;-82
2021/08/26 09:24:49;;;;;;;4.32;1.85;;;;;;;23.08;56.25;101681.44;10484828;28;20143;-82
2021/08/26 09:30:03;;;;;;;10.48;2.88;;;;;;;22.36;60.36;101586.81;10496127;28;20077;-82
2021/08/26 09:35:24;;;;;;;7.82;2.03;;;;;;;21.86;57.79;101567.69;10500627;28;20059;-83
2021/08/26 09:40:26;;;;;;;5.03;2.47;;;;;;;22.49;55.29;101701.47;10533545;28;20040;-82
2021/08/26 09:45:28;;;;;;;4.50;3.08;;;;;;;22.43;54.94;101683.19;10499762;28;20032;-82
2021/08/26 09:50:34;;;;;;;2.80;1.80;;;;;;;22.40;56.54;101562.28;10539681;28;20541;-82
2021/08/26 09:56:31;;;;;;;11.55;3.10;;;;;;;23.71;56.83;101674.22;10509994;28;20332;-82
2021/08/26 10:01:34;;;;;;;4.10;2.27;;;;;;;23.85;54.06;101675.41;10527653;28;20052;-82
2021/08/26 10:06:35;;;;;;;6.30;3.15;;;;;;;23.64;51.97;101583.19;10514439;28;20036;-82
2021/08/26 10:11:35;;;;;;;8.77;3.08;;;;;;;24.47;51.76;101678.47;10529580;28;20436;-82
2021/08/26 10:16:37;;;;;;;3.92;3.20;;;;;;;24.56;51.70;101685.97;10547321;28;20114;-82
2021/08/26 10:21:38;;;;;;;8.55;4.00;;;;;;;24.09;53.42;101677.72;10496182;28;20070;-83
2021/08/26 10:26:39;;;;;;;5.53;3.88;;;;;;;23.67;55.23;101668.38;10549052;28;20482;-83
2021/08/26 10:31:40;;;;;;;14.80;3.47;;;;;;;23.85;54.74;101675.41;10496885;28;20135;-82
2021/08/26 10:36:56;;;;;;;14.02;3.95;;;;;;;23.65;56.89;101680.78;10546871;28;20044;-82
2021/08/26 10:41:57;;;;;;;4.15;3.08;;;;;;;23.26;53.57;101677.44;10525196;28;20032;-82
2021/08/26 10:46:58;;;;;;;7.20;3.92;;;;;;;22.84;53.41;101636.69;10510904;28;20062;-83
2021/08/26 10:51:59;;;;;;;15.13;5.40;;;;;;;23.57;54.29;101693.16;10508384;28;20137;-82
2021/08/26 10:57:25;;;;;;;12.23;4.15;;;;;;;23.35;56.30;101654.56;10506090;28;20040;-82
2021/08/26 11:02:51;;;;;;;9.20;4.50;;;;;;;22.89;56.69;101701.09;10527242;28;20060;-82
2021/08/26 11:07:52;;;;;;;8.13;4.10;;;;;;;22.75;54.77;101697.94;10533602;28;20066;-82
2021/08/26 11:13:14;;;;;;;11.43;2.70;;;;;;;22.79;54.12;101695.47;10504458;28;20371;-82
2021/08/26 11:18:30;;;;;;;2.65;2.25;;;;;;;23.75;55.48;101691.09;10523735;28;20034;-83
2021/08/26 11:23:44;;;;;;;11.27;3.20;;;;;;;24.22;55.30;101691.09;10503469;28;20101;-82
2021/08/26 11:28:44;;;;;;;8.75;2.78;;;;;;;24.49;52.37;101688.16;10519870;28;20028;-84
2021/08/26 11:33:45;;;;;;;9.38;3.55;;;;;;;24.83;51.92;101652.53;10537952;28;20055;-82
2021/08/26 11:38:50;;;;;;;10.15;3.50;;;;;;;24.87;53.26;101690.78;10502308;28;20398;-83
2021/08/26 11:43:50;;;;;;;13.07;3.83;;;;;;;23.61;51.51;101646.44;10502168;28;20105;-82
2021/08/26 11:48:54;;;;;;;6.90;3.75;;;;;;;21.18;56.55;101608.34;10502474;28;20469;-80
2021/08/26 11:53:54;;;;;;;4.28;3.17;;;;;;;21.36;58.69;101718.31;10536741;28;20024;-80
2021/08/26 11:58:55;;;;;;;12.88;4.57;;;;;;;20.84;59.59;101691.75;10501110;28;20475;-80
2021/08/26 12:03:58;;;;;;;7.85;3.70;;;;;;;20.80;60.67;101722.75;10517498;28;20038;-80
2021/08/26 12:08:59;;;;;;;9.43;4.25;;;;;;;20.54;60.86;101692.00;10535686;28;20032;-79
2021/08/26 12:14:05;;;;;;;13.93;6.20;;;;;;;20.62;61.32;101710.88;10500779;28;20031;-78
2021/08/26 12:19:06;;;;;;;16.35;5.35;;;;;;;20.23;62.72;101701.53;10501223;28;20364;-79
2021/08/26 12:24:08;;;;;;;12.23;3.58;;;;;;;20.63;61.93;101682.25;10532793;28;20122;-79
2021/08/26 12:29:08;;;;;;;15.60;4.55;;;;;;;21.39;61.14;101706.78;10534628;28;20056;-79
2021/08/26 12:34:13;;;;;;;8.48;3.90;;;;;;;21.51;60.38;101633.16;10534817;28;20083;-80
2021/08/26 12:39:18;;;;;;;15.77;4.43;;;;;;;22.35;60.08;101706.56;10498833;28;20108;-80
2021/08/26 12:44:26;;;;;;;13.20;4.63;;;;;;;22.22;59.42;101680.19;10497009;28;20040;-80
2021/08/26 12:49:27;;;;;;;7.15;4.32;;;;;;;23.42;56.55;101616.50;10531418;28;20070;-80
2021/08/26 12:54:27;;;;;;;9.55;4.35;;;;;;;24.59;53.93;101671.56;10531677;28;20474;-81
2021/08/26 12:59:38;;;;;;;4.07;3.45;;;;;;;24.63;56.85;101684.88;10496958;28;20107;-81
2021/08/26 13:04:38;;;;;;;8.85;4.28;;;;;;;23.98;53.05;101651.13;10532039;28;20032;-82
2021/08/26 13:09:39;;;;;;;13.20;4.88;;;;;;;24.12;53.72;101646.75;10480722;28;20036;-81
2021/08/26 13:14:41;;;;;;;12.30;4.72;;;;;;;23.85;57.43;101663.50;10512616;28;20485;-82
2021/08/26 13:19:43;;;;;;;19.83;5.40;;;;;;;23.78;54.21;101679.50;10495727;28;20120;-82
2021/08/26 13:24:43;;;;;;;16.60;5.18;;;;;;;23.47;56.81;101686.72;10516702;28;20076;-82
2021/08/26 13:29:44;;;;;;;16.10;5.57;;;;;;;22.36;55.08;101608.88;10503460;28;20043;-82
2021/08/26 13:34:44;;;;;;;13.95;6.05;;;;;;;22.26;57.38;101688.78;10539242;28;20105;-81
2021/08/26 13:39:45;;;;;;;12.75;5.55;;;;;;;21.36;58.67;101600.66;10538200;28;20184;-79
2021/08/26 13:44:45;;;;;;;11.40;4.63;;;;;;;21.42;59.01;101664.13;10538998;28;20044;-79
2021/08/26 13:49:46;;;;;;;8.85;5.85;;;;;;;21.20;60.11;101677.78;10520676;28;20344;-79
2021/08/26 13:54:46;;;;;;;21.35;7.00;;;;;;;20.85;61.08;101685.16;10538159;28;20048;-79
2021/08/26 13:59:47;;;;;;;18.25;6.32;;;;;;;20.77;62.17;101677.31;10539678;28;20344;-79
2021/08/26 14:04:47;;;;;;;17.80;6.07;;;;;;;20.80;63.05;101676.78;10520842;28;20135;-79
2021/08/26 14:09:48;;;;;;;14.07;5.32;;;;;;;20.25;62.51;101608.59;10518983;28;20104;-80
2021/08/26 14:14:48;;;;;;;21.92;7.13;;;;;;;20.71;63.85;101661.78;10537325;28;20035;-79
2021/08/26 14:19:52;;;;;;;17.38;6.25;;;;;;;20.96;62.84;101652.31;10518494;28;20439;-80
2021/08/26 14:24:52;;;;;;;24.40;7.22;;;;;;;21.04;63.26;101630.69;10537881;28;20040;-79
2021/08/26 14:29:53;;;;;;;8.52;5.82;;;;;;;21.20;62.32;101662.09;10517392;28;20524;-79
2021/08/26 14:34:53;;;;;;;8.85;4.38;;;;;;;21.46;61.51;101659.78;10534229;28;20206;-80
2021/08/26 14:39:54;;;;;;;24.02;5.28;;;;;;;21.45;61.21;101666.38;10534364;28;20044;-79
2021/08/26 14:45:02;;;;;;;11.25;4.72;;;;;;;20.98;62.41;101587.66;10516619;28;20133;-80
2021/08/26 14:50:04;;;;;;;7.55;4.43;;;;;;;22.34;58.86;101666.28;10514807;28;20036;-80
2021/08/26 14:55:04;;;;;;;14.13;4.95;;;;;;;22.34;58.58;101646.97;10514160;28;20375;-81
2021/08/26 15:00:06;;;;;;;10.57;4.38;;;;;;;22.33;57.61;101649.97;10516420;28;20040;-81
2021/08/26 15:05:07;;;;;;;13.48;5.40;;;;;;;22.27;57.81;101658.19;10519518;28;20040;-81
2021/08/26 15:10:08;;;;;;;4.07;3.28;;;;;;;22.23;59.52;101675.50;10517667;28;20055;-81
2021/08/26 15:15:09;;;;;;;4.32;3.00;;;;;;;21.79;58.73;101648.72;10537204;28;20059;-81
2021/08/26 15:20:10;;;;;;;12.88;4.78;;;;;;;21.67;59.07;101622.34;10518560;28;20044;-81
2021/08/26 15:25:10;;;;;;;12.40;4.57;;;;;;;21.67;60.25;101660.94;10519094;28;20036;-82
2021/08/26 15:30:15;;;;;;;8.40;5.00;;;;;;;21.36;59.78;101627.38;10537575;28;20040;-81
2021/08/26 15:35:16;;;;;;;10.77;4.50;;;;;;;21.14;60.92;101589.56;10497257;28;20051;-82
2021/08/26 15:40:18;;;;;;;10.48;5.53;;;;;;;21.95;60.26;101647.00;10515382;28;20417;-82
2021/08/26 15:45:20;;;;;;;12.40;5.22;;;;;;;21.88;61.96;101646.31;10498170;28;20048;-81
2021/08/26 15:50:21;;;;;;;9.88;5.20;;;;;;;21.69;60.62;101653.22;10534581;28;20097;-81
2021/08/26 15:55:27;;;;;;;14.68;6.68;;;;;;;21.45;60.48;101642.41;10500185;28;20036;-82
2021/08/26 16:00:41;;;;;;;13.07;5.93;;;;;;;20.60;61.00;101511.31;10514637;28;20482;-81
2021/08/26 16:05:42;;;;;;;14.18;5.53;;;;;;;21.36;61.09;101624.63;10531028;28;20032;-82
2021/08/26 16:10:44;;;;;;;18.48;6.22;;;;;;;21.23;60.71;101620.28;10515137;28;20489;-82
2021/08/26 16:15:44;;;;;;;10.98;5.28;;;;;;;20.86;61.07;101647.44;10514504;28;20413;-81
2021/08/26 16:20:45;;;;;;;14.90;4.85;;;;;;;20.65;61.41;101633.31;10498454;28;20147;-81
2021/08/26 16:25:46;;;;;;;15.80;6.13;;;;;;;19.77;63.07;101540.25;10500908;28;20464;-81
2021/08/26 16:30:46;;;;;;;10.23;6.03;;;;;;;20.53;62.29;101648.22;10518831;28;20055;-81
2021/08/26 16:35:47;;;;;;;8.05;5.70;;;;;;;20.34;62.38;101634.63;10534682;28;20043;-81
2021/08/26 16:40:49;;;;;;;13.63;6.00;;;;;;;20.26;63.09;101646.03;10515542;28;20080;-81
2021/08/26 16:45:50;;;;;;;32.65;8.02;;;;;;;20.08;63.01;101625.03;10514052;28;20061;-81
2021/08/26 16:50:50;;;;;;;19.05;7.28;;;;;;;19.64;63.88;101577.06;10531968;28;20024;-81
2021/08/26 16:55:50;;;;;;;20.33;6.57;;;;;;;20.00;64.04;101652.88;10497697;28;20042;-81
2021/08/26 17:00:51;;;;;;;21.70;8.45;;;;;;;20.01;63.93;101642.75;10531032;28;20040;-81
2021/08/26 17:05:51;;;;;;;12.88;6.85;;;;;;;20.11;63.92;101649.28;10533658;28;20047;-81
2021/08/26 17:10:52;;;;;;;13.80;7.30;;;;;;;20.13;63.74;101658.13;10518592;28;20032;-82
2021/08/26 17:15:52;;;;;;;23.67;6.60;;;;;;;20.06;63.85;101653.84;10536513;28;20036;-81
2021/08/26 17:20:55;;;;;;;12.82;5.65;;;;;;;19.94;63.99;101656.59;10497347;28;20119;-81
2021/08/26 17:25:56;;;;;;;24.13;7.47;;;;;;;19.52;64.31;101610.03;10533151;28;20028;-82
2021/08/26 17:36:03;;;;;;;32.63;7.10;;;;;;;19.37;64.42;101583.06;10615233;27;1270317;-82
2021/08/26 17:41:03;;;;;;;19.20;5.80;;;;;;;20.13;64.37;101669.13;10612659;28;20480;-82
2021/08/26 17:46:03;;;;;;;7.57;4.65;;;;;;;20.30;64.51;101674.72;10611458;28;20038;-82
2021/08/26 17:51:04;;;;;;;16.15;5.70;;;;;;;20.42;64.33;101677.41;10612054;27;20035;-82
2021/08/26 17:56:05;;;;;;;11.57;5.68;;;;;;;20.67;64.08;101685.34;10611566;28;20039;-82
2021/08/26 18:01:09;;;;;;;22.55;5.80;;;;;;;20.37;64.17;101669.06;10609011;28;20035;-82
2021/08/26 18:06:09;;;;;;;21.17;6.30;;;;;;;20.17;64.17;101648.31;10610619;28;20077;-82
2021/08/26 18:11:10;;;;;;;23.02;5.35;;;;;;;19.91;63.70;101637.84;10593672;28;20132;-82
2021/08/26 18:16:10;;;;;;;18.65;5.72;;;;;;;19.97;64.04;101659.72;10591281;28;20032;-82
2021/08/26 18:21:11;;;;;;;6.25;2.97;;;;;;;19.61;64.19;101616.00;10589425;28;20134;-82
2021/08/26 18:26:14;;;;;;;4.60;2.50;;;;;;;19.66;63.90;101663.69;10588311;28;20478;-82
2021/08/26 18:31:15;;;;;;;5.90;2.08;;;;;;;19.86;64.40;101714.72;10571743;28;20456;-82
2021/08/26 18:36:15;;;;;;;3.53;1.58;;;;;;;19.86;62.97;101731.19;10603998;28;20197;-82
2021/08/26 18:41:20;;;;;;;5.88;2.45;;;;;;;18.90;62.90;101607.72;10586796;28;20436;-81
2021/08/26 18:46:23;;;;;;;25.10;2.33;;;;;;;18.00;62.46;101522.75;10429890;28;20059;-81
2021/08/26 18:51:25;;;;;;;4.45;1.63;;;;;;;19.22;62.85;101789.47;10516465;28;20139;-81
2021/08/26 18:56:26;;;;;;;8.80;2.45;;;;;;;19.10;62.93;101763.88;10535398;28;20470;-82
2021/08/26 19:01:26;;;;;;;1.10;1.00;;;;;;;18.80;64.05;101769.38;10549699;28;20103;-81
2021/08/26 19:06:37;;;;;;;3.50;2.30;;;;;;;18.09;62.50;101672.09;10534210;28;20118;-81
2021/08/26 19:11:41;;;;;;;3.90;1.35;;;;;;;18.14;62.98;101707.88;10532518;28;20056;-81
2021/08/26 19:16:41;;;;;;;6.18;1.58;;;;;;;17.28;62.83;101597.28;10533941;28;20494;-81
2021/08/26 19:21:42;;;;;;;0.75;0.75;;;;;;;18.40;63.01;101790.91;10533140;28;20047;-81
2021/08/26 19:27:16;;;;;;;2.50;1.15;;;;;;;17.51;62.23;101672.47;10533256;28;20055;-81
2021/08/26 19:32:27;;;;;;;6.20;1.77;;;;;;;17.70;63.40;101734.44;10513966;28;20044;-81
2021/08/26 19:37:28;;;;;;;3.80;2.20;;;;;;;16.78;63.43;101602.72;10516668;28;20476;-81
2021/08/26 19:42:28;;;;;;;1.58;1.02;;;;;;;18.01;63.62;101858.78;10547727;28;20110;-81
2021/08/26 19:47:39;;;;;;;2.38;1.83;;;;;;;17.39;63.66;101733.44;10534121;28;20028;-83
2021/08/26 19:58:03;;;;;;;8.50;1.40;;;;;;;17.61;65.36;101859.88;10510761;28;20052;-81
2021/08/26 20:03:04;;;;;;;1.23;0.85;;;;;;;17.16;63.63;101796.13;10515351;28;20028;-80
2021/08/26 20:08:04;;;;;;;3.08;1.63;;;;;;;17.58;63.26;101849.38;10516039;28;20028;-82
2021/08/26 20:13:05;;;;;;;5.97;1.17;;;;;;;17.43;63.99;101860.63;10533666;28;20108;-81
2021/08/26 20:18:05;;;;;;;9.68;2.35;;;;;;;16.51;63.91;101728.66;10532501;28;20105;-82
2021/08/26 20:23:06;;;;;;;6.72;2.65;;;;;;;17.42;63.68;101877.25;10531729;28;20032;-82
2021/08/26 20:28:09;;;;;;;5.00;2.20;;;;;;;16.70;63.73;101770.66;10547721;28;20056;-81
2021/08/26 20:33:10;;;;;;;8.15;4.13;;;;;;;17.40;63.14;101885.69;10512940;28;20107;-80
2021/08/26 20:38:10;;;;;;;7.22;0.98;;;;;;;17.26;63.16;101844.91;10528253;28;20067;-81
2021/08/26 20:43:11;;;;;;;3.97;2.05;;;;;;;17.61;63.68;101887.28;10510976;28;20063;-81
2021/08/26 20:48:11;;;;;;;4.13;1.75;;;;;;;17.74;64.06;101894.56;10510682;28;20130;-81
2021/08/26 20:53:12;;;;;;;1.70;1.60;;;;;;;17.95;63.74;101893.38;10493906;28;20461;-81
2021/08/26 20:58:14;;;;;;;1.33;1.10;;;;;;;17.99;64.36;101883.66;10528916;28;20115;-81
2021/08/26 21:03:14;;;;;;;2.80;0.90;;;;;;;18.21;62.39;101892.31;10496087;28;20519;-81
2021/08/26 21:08:18;;;;;;;8.60;2.35;;;;;;;18.28;62.33;101887.66;10531338;28;20040;-82
2021/08/26 21:13:18;;;;;;;7.03;1.70;;;;;;;18.18;62.90;101881.81;10531414;28;20444;-81
2021/08/26 21:18:19;;;;;;;4.60;1.85;;;;;;;18.22;62.72;101904.13;10548801;28;20055;-81
2021/08/26 21:23:21;;;;;;;3.05;1.85;;;;;;;18.33;64.02;101896.03;10532094;28;20475;-81
2021/08/26 21:28:21;;;;;;;0.95;0.95;;;;;;;18.38;61.89;101897.25;10498729;28;20036;-82
2021/08/26 21:33:28;;;;;;;0.95;0.88;;;;;;;18.34;62.14;101886.72;10532140;28;20135;-81
2021/08/26 21:44:15;;;;;;;1.58;1.45;;;;;;;16.33;62.78;101632.84;10523348;28;20023;-81
2021/08/26 21:49:48;;;;;;;6.22;1.88;;;;;;;16.79;62.49;101716.56;10535379;28;20031;-80
2021/08/26 21:54:49;;;;;;;3.33;1.10;;;;;;;16.79;63.37;101726.69;10521763;28;20119;-80
2021/08/26 21:59:50;;;;;;;9.45;1.98;;;;;;;17.16;63.22;101843.47;10534188;28;20540;-81
2021/08/26 22:04:50;;;;;;;6.90;1.65;;;;;;;17.52;63.06;101910.50;10552000;28;20123;-80
2021/08/26 22:09:50;;;;;;;4.43;1.52;;;;;;;17.37;63.02;101913.53;10535653;28;20028;-80
2021/08/26 22:14:51;;;;;;;9.48;1.98;;;;;;;17.29;63.05;101907.44;10534803;28;20433;-80
2021/08/26 22:19:51;;;;;;;6.07;1.48;;;;;;;17.15;63.59;101914.88;10555799;28;20420;-81
2021/08/26 22:24:52;;;;;;;10.90;2.17;;;;;;;17.10;63.30;101923.75;10544220;28;20081;-81
2021/08/26 22:29:52;;;;;;;6.00;1.88;;;;;;;15.90;63.72;101741.88;10544516;28;20051;-81
2021/08/26 22:34:53;;;;;;;1.25;1.13;;;;;;;16.80;64.08;101915.19;10527659;28;20135;-82
2021/08/26 22:39:53;;;;;;;4.57;1.60;;;;;;;16.75;63.70;101917.72;10545743;28;20118;-81
2021/08/26 22:44:54;;;;;;;11.40;2.00;;;;;;;16.65;63.96;101923.59;10544656;28;20027;-81
2021/08/26 22:49:54;;;;;;;7.55;2.15;;;;;;;16.59;64.06;101919.00;10545182;28;20126;-80
2021/08/26 22:54:55;;;;;;;18.95;2.00;;;;;;;16.45;64.63;101914.59;10544359;28;20040;-81
2021/08/26 22:59:55;;;;;;;3.55;1.85;;;;;;;16.18;64.46;101881.00;10544751;28;20426;-81
2021/08/26 23:04:55;;;;;;;7.03;2.03;;;;;;;16.28;64.31;101908.72;10560867;28;20372;-81
2021/08/26 23:09:56;;;;;;;4.70;1.27;;;;;;;16.29;64.35;101921.34;10526646;28;20475;-82
2021/08/26 23:14:56;;;;;;;2.13;1.15;;;;;;;16.25;64.70;101928.28;10544289;28;20512;-81
2021/08/26 23:19:57;;;;;;;9.23;2.03;;;;;;;16.21;64.80;101919.66;10560447;28;20532;-81
2021/08/26 23:24:57;;;;;;;10.05;2.83;;;;;;;16.20;64.77;101922.59;10543950;28;20526;-81